createdAt,value
2018-06-08T00:00:04.293Z,64.63
2018-06-08T00:02:33.416Z,63.17
2018-06-08T00:05:02.486Z,62.27
2018-06-08T00:07:32.156Z,67.53
2018-06-08T00:10:01.397Z,66.47
2018-06-08T00:12:30.771Z,71.67
2018-06-08T00:15:00.131Z,66.90
2018-06-08T00:17:29.413Z,65.50
2018-06-08T00:19:58.954Z,74.00
2018-06-08T00:22:28.848Z,68.33
2018-06-08T00:24:58.252Z,70.93
2018-06-08T00:27:27.552Z,68.70
2018-06-08T00:29:56.817Z,69.60
2018-06-08T00:32:26.044Z,74.37
2018-06-08T00:34:55.413Z,72.53
2018-06-08T00:37:24.750Z,75.77
2018-06-08T00:39:54.914Z,71.27
2018-06-08T00:42:24.046Z,71.93
2018-06-08T00:44:53.245Z,75.97
2018-06-08T00:47:22.396Z,76.27
2018-06-08T00:49:51.612Z,71.30
2018-06-08T00:52:20.764Z,75.30
2018-06-08T00:54:50.108Z,78.43
2018-06-08T00:57:19.245Z,68.10
2018-06-08T00:59:49.552Z,77.17
2018-06-08T01:02:18.824Z,76.37
2018-06-08T01:04:48.375Z,74.10
2018-06-08T01:07:17.462Z,76.50
2018-06-08T01:09:46.511Z,71.13
2018-06-08T01:12:15.560Z,68.80
2018-06-08T01:14:45.575Z,74.07
2018-06-08T01:17:14.773Z,72.57
2018-06-08T01:19:43.987Z,74.47
2018-06-08T01:22:13.168Z,68.50
2018-06-08T01:24:42.365Z,76.67
2018-06-08T01:27:11.476Z,72.77
2018-06-08T01:29:40.507Z,75.03
2018-06-08T01:32:09.672Z,67.50
2018-06-08T01:34:39.049Z,70.87
2018-06-08T01:37:08.251Z,70.53
2018-06-08T01:39:37.327Z,71.27
2018-06-08T01:42:06.461Z,67.03
2018-06-08T01:44:36.239Z,68.87
2018-06-08T01:47:05.710Z,67.70
2018-06-08T01:49:34.992Z,72.27
2018-06-08T01:52:04.176Z,72.67
2018-06-08T01:54:33.454Z,72.73
2018-06-08T01:57:02.672Z,73.17
2018-06-08T01:59:33.143Z,74.73
2018-06-08T02:02:02.393Z,73.27
2018-06-08T02:04:31.441Z,69.27
2018-06-08T02:07:00.668Z,72.47
2018-06-08T02:09:29.860Z,72.47
2018-06-08T02:11:58.932Z,73.87
2018-06-08T02:14:28.185Z,79.63
2018-06-08T02:16:57.407Z,73.83
2018-06-08T02:19:26.586Z,71.27
2018-06-08T02:21:55.895Z,80.97
2018-06-08T02:24:25.047Z,81.90
2018-06-08T02:26:54.136Z,84.00
2018-06-08T02:29:23.505Z,74.00
2018-06-08T02:31:52.663Z,81.20
2018-06-08T02:34:22.451Z,84.40
2018-06-08T02:36:51.608Z,76.17
2018-06-08T02:39:20.806Z,80.40
2018-06-08T02:41:49.993Z,81.93
2018-06-08T02:44:20.168Z,76.23
2018-06-08T02:46:49.296Z,85.53
2018-06-08T02:49:18.601Z,82.57
2018-06-08T02:51:47.595Z,79.87
2018-06-08T02:54:16.702Z,82.50
2018-06-08T02:56:46.589Z,79.57
2018-06-08T02:59:15.668Z,86.03
2018-06-08T03:01:46.250Z,80.60
2018-06-08T03:04:15.641Z,81.67
2018-06-08T03:06:44.715Z,88.03
2018-06-08T03:09:14.187Z,80.00
2018-06-08T03:11:43.225Z,79.27
2018-06-08T03:14:12.370Z,73.43
2018-06-08T03:16:41.523Z,78.07
2018-06-08T03:19:10.867Z,75.60
2018-06-08T03:21:40.112Z,76.00
2018-06-08T03:24:09.314Z,73.70
2018-06-08T03:26:38.750Z,81.77
2018-06-08T03:29:07.782Z,76.90
2018-06-08T03:31:36.988Z,79.10
2018-06-08T03:34:06.538Z,77.97
2018-06-08T03:36:35.741Z,81.47
2018-06-08T03:39:07.709Z,77.50
2018-06-08T03:41:36.819Z,79.03
2018-06-08T03:44:06.062Z,77.33
2018-06-08T03:46:35.245Z,77.30
2018-06-08T03:49:04.517Z,80.03
2018-06-08T03:51:33.554Z,83.53
2018-06-08T03:54:02.809Z,85.47
2018-06-08T03:56:31.933Z,84.87
2018-06-08T03:59:01.405Z,80.30
2018-06-08T04:01:34.210Z,79.37
2018-06-08T04:04:03.405Z,78.10
2018-06-08T04:06:32.579Z,87.67
2018-06-08T04:09:02.277Z,79.17
2018-06-08T04:11:31.440Z,76.43
2018-06-08T04:14:00.552Z,81.37
2018-06-08T04:16:29.799Z,81.97
2018-06-08T04:18:59.347Z,83.80
2018-06-08T04:21:28.610Z,81.97
2018-06-08T04:23:58.583Z,79.77
2018-06-08T04:26:27.689Z,82.33
2018-06-08T04:28:57.132Z,85.60
2018-06-08T04:31:26.915Z,87.50
2018-06-08T04:33:56.379Z,79.90
2018-06-08T04:36:25.706Z,81.80
2018-06-08T04:38:54.888Z,87.60
2018-06-08T04:41:23.949Z,88.60
2018-06-08T04:43:53.178Z,79.57
2018-06-08T04:46:22.480Z,79.70
2018-06-08T04:48:51.589Z,77.80
2018-06-08T04:51:20.686Z,87.87
2018-06-08T04:53:49.876Z,87.87
2018-06-08T04:56:19.070Z,90.70
2018-06-08T04:58:48.188Z,91.20
2018-06-08T05:01:17.044Z,95.13
2018-06-08T05:03:46.141Z,91.13
2018-06-08T05:06:15.408Z,97.73
2018-06-08T05:08:44.660Z,99.73
2018-06-08T05:11:13.860Z,93.93
2018-06-08T05:13:43.033Z,98.73
2018-06-08T05:16:12.359Z,90.03
2018-06-08T05:18:41.126Z,90.30
2018-06-08T05:21:10.929Z,95.90
2018-06-08T05:23:40.541Z,92.80
2018-06-08T05:26:09.847Z,90.20
2018-06-08T05:28:39.005Z,90.00
2018-06-08T05:31:08.456Z,82.07
2018-06-08T05:33:38.340Z,89.20
2018-06-08T05:36:07.928Z,85.50
2018-06-08T05:38:37.159Z,87.50
2018-06-08T05:41:06.571Z,89.03
2018-06-08T05:43:36.474Z,89.40
2018-06-08T05:46:05.911Z,89.40
2018-06-08T05:48:35.416Z,87.57
2018-06-08T05:51:04.685Z,89.80
2018-06-08T05:53:33.895Z,87.53
2018-06-08T05:56:03.113Z,87.30
2018-06-08T05:58:32.182Z,85.30
2018-06-08T06:01:02.016Z,86.40
2018-06-08T06:03:31.414Z,84.80
2018-06-08T06:06:00.688Z,85.07
2018-06-08T06:08:29.828Z,86.93
2018-06-08T06:10:59.211Z,84.53
2018-06-08T06:13:28.281Z,80.80
2018-06-08T06:15:57.406Z,81.97
2018-06-08T06:18:26.627Z,75.23
2018-06-08T06:20:55.854Z,80.60
2018-06-08T06:23:24.556Z,74.83
2018-06-08T06:25:53.777Z,75.03
2018-06-08T06:28:23.127Z,77.50
2018-06-08T06:30:52.314Z,70.90
2018-06-08T06:33:21.526Z,74.67
2018-06-08T06:35:57.238Z,76.27
2018-06-08T06:38:26.459Z,76.70
2018-06-08T06:41:01.538Z,73.23
2018-06-08T06:43:49.512Z,73.77
2018-06-08T06:46:18.675Z,68.20
2018-06-08T06:48:47.819Z,66.03
2018-06-08T06:51:16.970Z,72.97
2018-06-08T06:53:46.061Z,71.43
2018-06-08T06:56:15.218Z,73.70
2018-06-08T06:58:44.410Z,64.03
2018-06-08T07:01:13.162Z,73.47
2018-06-08T07:03:42.227Z,67.53
2018-06-08T07:06:11.662Z,70.53
2018-06-08T07:08:40.706Z,71.33
2018-06-08T07:11:09.878Z,65.07
2018-06-08T07:13:39.133Z,74.40
2018-06-08T07:16:09.231Z,73.13
2018-06-08T07:18:38.475Z,71.67
2018-06-08T07:21:07.524Z,70.73
2018-06-08T07:23:36.857Z,71.57
2018-06-08T07:26:06.067Z,70.53
2018-06-08T07:28:35.294Z,67.60
2018-06-08T07:31:05.359Z,67.97
2018-06-08T07:33:34.534Z,68.77
2018-06-08T07:36:03.628Z,75.40
2018-06-08T07:38:32.707Z,71.93
2018-06-08T07:41:01.804Z,74.60
2018-06-08T07:43:30.966Z,72.40
2018-06-08T07:46:00.009Z,72.07
2018-06-08T07:48:29.255Z,70.90
2018-06-08T07:50:58.475Z,70.83
2018-06-08T07:53:27.741Z,68.83
2018-06-08T07:55:56.811Z,65.03
2018-06-08T07:58:25.846Z,65.43
2018-06-08T08:00:55.959Z,64.10
2018-06-08T08:03:25.274Z,67.57
2018-06-08T08:05:54.437Z,69.43
2018-06-08T08:08:23.668Z,67.20
2018-06-08T08:10:52.915Z,67.07
2018-06-08T08:13:22.173Z,63.53
2018-06-08T08:15:51.448Z,66.10
2018-06-08T08:18:20.617Z,61.23
2018-06-08T08:20:49.810Z,64.70
2018-06-08T08:23:18.927Z,64.87
2018-06-08T08:25:48.091Z,64.60
2018-06-08T08:28:18.262Z,59.03
2018-06-08T08:30:47.315Z,56.77
2018-06-08T08:33:16.574Z,56.27
2018-06-08T08:35:45.697Z,60.50
2018-06-08T08:38:15.048Z,59.50
2018-06-08T08:40:44.362Z,62.53
2018-06-08T08:43:13.713Z,58.50
2018-06-08T08:45:43.010Z,62.97
2018-06-08T08:48:12.198Z,63.50
2018-06-08T08:50:41.444Z,63.00
2018-06-08T08:53:10.776Z,64.37
2018-06-08T08:55:39.971Z,63.13
2018-06-08T08:58:09.138Z,61.37
2018-06-08T09:00:38.408Z,59.63
2018-06-08T09:03:07.541Z,59.33
2018-06-08T09:05:37.398Z,61.77
2018-06-08T09:08:06.651Z,57.93
2018-06-08T09:10:35.962Z,58.73
2018-06-08T09:13:05.378Z,62.70
2018-06-08T09:15:34.715Z,62.20
2018-06-08T09:18:03.902Z,59.60
2018-06-08T09:20:33.166Z,58.03
2018-06-08T09:23:02.434Z,57.80
2018-06-08T09:25:31.773Z,55.27
2018-06-08T09:28:00.907Z,59.10
2018-06-08T09:30:30.174Z,56.50
2018-06-08T09:32:59.564Z,56.27
2018-06-08T09:35:29.237Z,59.13
2018-06-08T09:37:58.364Z,50.63
2018-06-08T09:40:27.883Z,57.90
2018-06-08T09:42:57.069Z,54.17
2018-06-08T09:45:26.280Z,53.57
2018-06-08T09:47:55.701Z,54.13
2018-06-08T09:50:25.379Z,55.50
2018-06-08T09:52:54.728Z,54.27
2018-06-08T09:55:23.826Z,54.43
2018-06-08T09:57:53.935Z,53.13
2018-06-08T10:00:28.299Z,51.37
2018-06-08T10:02:57.562Z,53.87
2018-06-08T10:05:26.386Z,53.10
2018-06-08T10:07:55.457Z,54.73
2018-06-08T10:10:24.504Z,50.33
2018-06-08T10:12:53.806Z,54.57
2018-06-08T10:15:23.029Z,55.23
2018-06-08T10:17:52.190Z,53.10
2018-06-08T10:20:21.375Z,51.03
2018-06-08T10:22:50.907Z,47.37
2018-06-08T10:25:20.416Z,51.90
2018-06-08T10:27:49.613Z,53.97
2018-06-08T10:30:19.442Z,49.73
2018-06-08T10:32:48.635Z,47.80
2018-06-08T10:35:17.735Z,53.07
2018-06-08T10:37:46.516Z,49.93
2018-06-08T10:40:15.191Z,47.80
2018-06-08T10:42:44.264Z,48.20
2018-06-08T10:45:13.315Z,50.20
2018-06-08T10:47:42.789Z,47.43
2018-06-08T10:50:12.076Z,50.03
2018-06-08T10:52:41.256Z,48.83
2018-06-08T10:55:10.451Z,49.47
2018-06-08T10:57:39.720Z,50.87
2018-06-08T11:00:08.848Z,48.13
2018-06-08T11:02:38.039Z,48.60
2018-06-08T11:05:07.377Z,48.50
2018-06-08T11:07:36.580Z,48.50
2018-06-08T11:10:05.809Z,50.48
2018-06-08T11:12:35.030Z,50.90
2018-06-08T11:15:04.319Z,53.93
2018-06-08T11:17:33.468Z,51.43
2018-06-08T11:20:02.580Z,51.20
2018-06-08T11:22:31.701Z,51.63
2018-06-08T11:25:01.531Z,50.97
2018-06-08T11:27:30.735Z,50.93
2018-06-08T11:29:59.941Z,51.37
2018-06-08T11:32:29.854Z,46.90
2018-06-08T11:34:59.069Z,48.60
2018-06-08T11:37:28.373Z,51.13
2018-06-08T11:39:57.629Z,51.60
2018-06-08T11:42:26.772Z,47.97
2018-06-08T11:44:56.084Z,50.20
2018-06-08T11:47:25.247Z,46.80
2018-06-08T11:49:54.582Z,45.37
2018-06-08T11:52:23.864Z,45.10
2018-06-08T11:54:53.011Z,46.77
2018-06-08T11:57:22.136Z,45.87
2018-06-08T11:59:51.253Z,39.53
2018-06-08T12:02:20.437Z,44.35
2018-06-08T12:04:49.611Z,44.70
2018-06-08T12:07:18.698Z,46.53
2018-06-08T12:09:47.894Z,49.88
2018-06-08T12:12:17.025Z,49.05
2018-06-08T12:14:46.252Z,50.05
2018-06-08T12:17:15.493Z,44.88
2018-06-08T12:19:44.648Z,43.05
2018-06-08T12:22:13.887Z,45.60
2018-06-08T12:24:43.675Z,44.85
2018-06-08T12:27:14.207Z,39.30
2018-06-08T12:29:43.865Z,37.60
2018-06-08T12:32:13.025Z,39.73
2018-06-08T12:34:42.398Z,47.43
2018-06-08T12:37:11.667Z,45.98
2018-06-08T12:39:40.836Z,45.38
2018-06-08T12:42:09.959Z,48.83
2018-06-08T12:44:39.201Z,47.73
2018-06-08T12:47:08.560Z,46.77
2018-06-08T12:49:37.728Z,44.60
2018-06-08T12:52:07.015Z,48.10
2018-06-08T12:54:36.490Z,46.58
2018-06-08T12:57:06.514Z,42.30
2018-06-08T12:59:35.788Z,43.90
2018-06-08T13:02:05.039Z,44.08
2018-06-08T13:04:34.581Z,43.45
2018-06-08T13:07:04.412Z,42.08
2018-06-08T13:09:33.544Z,40.23
2018-06-08T13:12:02.678Z,41.48
2018-06-08T13:14:31.747Z,39.38
2018-06-08T13:17:00.842Z,41.90
2018-06-08T13:19:29.953Z,42.08
2018-06-08T13:21:59.017Z,39.97
2018-06-08T13:24:28.099Z,41.37
2018-06-08T13:26:57.359Z,38.43
2018-06-08T13:29:26.492Z,36.50
2018-06-08T13:31:56.436Z,36.20
2018-06-08T13:34:25.593Z,39.57
2018-06-08T13:36:54.803Z,39.83
2018-06-08T13:39:24.654Z,35.05
2018-06-08T13:41:54.386Z,37.45
2018-06-08T13:44:23.485Z,40.08
2018-06-08T13:46:52.621Z,40.52
2018-06-08T13:49:21.937Z,40.20
2018-06-08T13:51:51.107Z,35.70
2018-06-08T13:54:20.376Z,39.92
2018-06-08T13:56:49.736Z,37.15
2018-06-08T13:59:18.911Z,38.73
2018-06-08T14:01:48.191Z,35.55
2018-06-08T14:04:17.426Z,33.30
2018-06-08T14:06:46.340Z,28.17
2018-06-08T14:09:15.577Z,29.77
2018-06-08T14:11:44.760Z,29.05
2018-06-08T14:14:13.879Z,25.15
2018-06-08T14:16:43.438Z,25.60
2018-06-08T14:19:12.615Z,25.88
2018-06-08T14:21:41.842Z,22.37
2018-06-08T14:24:11.181Z,19.52
2018-06-08T14:26:40.318Z,20.12
2018-06-08T14:29:09.460Z,19.37
2018-06-08T14:31:38.772Z,18.42
2018-06-08T14:34:08.086Z,16.15
2018-06-08T14:36:37.719Z,21.82
2018-06-08T14:39:08.442Z,21.23
2018-06-08T14:41:37.614Z,21.73
2018-06-08T14:44:06.841Z,18.12
2018-06-08T14:46:36.124Z,21.70
2018-06-08T14:49:05.300Z,17.20
2018-06-08T14:51:34.597Z,23.62
2018-06-08T14:54:03.855Z,22.22
2018-06-08T14:56:32.977Z,20.70
2018-06-08T14:59:02.368Z,21.33
2018-06-08T15:01:31.436Z,15.30
2018-06-08T15:04:00.317Z,19.52
2018-06-08T15:06:29.556Z,20.65
2018-06-08T15:08:58.667Z,21.55
2018-06-08T15:11:28.210Z,23.30
2018-06-08T15:13:58.090Z,22.52
2018-06-08T15:16:27.422Z,22.25
2018-06-08T15:18:56.536Z,23.52
2018-06-08T15:21:25.938Z,23.98
2018-06-08T15:23:55.149Z,24.50
2018-06-08T15:26:24.001Z,24.80
2018-06-08T15:28:52.974Z,20.55
2018-06-08T15:31:22.173Z,18.65
2018-06-08T15:33:51.685Z,23.45
2018-06-08T15:36:20.869Z,23.10
2018-06-08T15:38:50.023Z,19.98
2018-06-08T15:41:20.084Z,21.12
2018-06-08T15:43:49.164Z,24.72
2018-06-08T15:46:18.671Z,21.90
2018-06-08T15:48:47.913Z,21.45
2018-06-08T15:51:17.059Z,24.47
2018-06-08T15:53:46.671Z,24.77
2018-06-08T15:56:16.187Z,23.12
2018-06-08T15:58:45.516Z,24.70
2018-06-08T16:01:14.616Z,22.60
2018-06-08T16:03:43.531Z,23.15
2018-06-08T16:06:12.615Z,21.85
2018-06-08T16:08:42.164Z,24.45
2018-06-08T16:11:11.344Z,23.75
2018-06-08T16:13:40.539Z,27.40
2018-06-08T16:16:09.598Z,27.45
2018-06-08T16:18:38.695Z,29.20
2018-06-08T16:21:07.892Z,29.18
2018-06-08T16:23:36.997Z,26.27
2018-06-08T16:26:06.311Z,25.17
2018-06-08T16:28:35.439Z,23.92
2018-06-08T16:31:04.717Z,26.37
2018-06-08T16:33:34.022Z,30.68
2018-06-08T16:36:03.752Z,29.32
2018-06-08T16:38:32.981Z,32.15
2018-06-08T16:41:02.606Z,33.30
2018-06-08T16:43:31.763Z,33.73
2018-06-08T16:46:01.090Z,35.17
2018-06-08T16:48:30.313Z,30.02
2018-06-08T16:50:59.075Z,32.15
2018-06-08T16:53:28.062Z,32.42
2018-06-08T16:55:57.306Z,35.88
2018-06-08T16:58:26.462Z,36.90
2018-06-08T17:00:55.708Z,38.60
2018-06-08T17:03:25.024Z,38.20
2018-06-08T17:05:54.186Z,36.90
2018-06-08T17:08:23.371Z,38.35
2018-06-08T17:10:52.488Z,37.83
2018-06-08T17:13:21.623Z,34.58
2018-06-08T17:15:50.719Z,36.03
2018-06-08T17:18:20.638Z,33.90
2018-06-08T17:20:49.848Z,33.17
2018-06-08T17:23:20.104Z,34.37
2018-06-08T17:25:49.582Z,34.20
2018-06-08T17:28:18.912Z,38.50
2018-06-08T17:30:48.209Z,34.90
2018-06-08T17:33:17.645Z,33.00
2018-06-08T17:35:46.857Z,32.67
2018-06-08T17:38:15.953Z,30.77
2018-06-08T17:40:44.999Z,30.50
2018-06-08T17:43:14.180Z,30.63
2018-06-08T17:45:43.398Z,26.82
2018-06-08T17:48:12.574Z,25.88
2018-06-08T17:50:41.785Z,24.92
2018-06-08T17:53:10.972Z,25.35
2018-06-08T17:55:40.308Z,25.40
2018-06-08T17:58:10.374Z,20.88
2018-06-08T18:00:39.693Z,25.72
2018-06-08T18:03:08.867Z,28.05
2018-06-08T18:05:38.267Z,28.23
2018-06-08T18:08:07.346Z,25.60
2018-06-08T18:10:36.537Z,26.40
2018-06-08T18:13:05.775Z,26.50
2018-06-08T18:15:34.950Z,27.30
2018-06-08T18:18:04.354Z,25.40
2018-06-08T18:20:34.312Z,35.38
2018-06-08T18:23:04.420Z,36.03
2018-06-08T18:25:33.661Z,35.20
2018-06-08T18:28:02.844Z,35.43
2018-06-08T18:30:32.154Z,32.73
2018-06-08T18:33:01.646Z,32.63
2018-06-08T18:35:30.749Z,31.43
2018-06-08T18:37:59.874Z,30.60
2018-06-08T18:40:29.032Z,27.60
2018-06-08T18:42:58.842Z,27.93
2018-06-08T18:45:27.930Z,30.07
2018-06-08T18:47:57.246Z,26.70
2018-06-08T18:50:26.376Z,30.13
2018-06-08T18:52:56.205Z,30.80
2018-06-08T18:55:25.255Z,29.33
2018-06-08T18:57:54.471Z,29.03
2018-06-08T19:00:23.740Z,34.87
2018-06-08T19:02:53.011Z,35.77
2018-06-08T19:05:22.070Z,42.33
2018-06-08T19:07:51.171Z,45.30
2018-06-08T19:10:20.532Z,43.13
2018-06-08T19:12:49.728Z,43.97
2018-06-08T19:15:19.615Z,40.93
2018-06-08T19:17:48.773Z,43.67
2018-06-08T19:20:17.850Z,45.10
2018-06-08T19:22:46.884Z,45.70
2018-06-08T19:25:16.248Z,45.03
2018-06-08T19:27:45.321Z,42.27
2018-06-08T19:30:14.411Z,41.17
2018-06-08T19:32:43.625Z,39.63
2018-06-08T19:35:12.819Z,41.30
2018-06-08T19:37:41.996Z,38.77
2018-06-08T19:40:11.195Z,40.33
2018-06-08T19:42:40.532Z,38.37
2018-06-08T19:45:09.622Z,38.87
2018-06-08T19:47:38.989Z,39.77
2018-06-08T19:50:08.332Z,37.73
2018-06-08T19:52:37.687Z,38.07
2018-06-08T19:55:07.859Z,37.03
2018-06-08T19:57:37.067Z,40.43
2018-06-08T20:00:06.337Z,36.70
2018-06-08T20:02:35.448Z,38.67
2018-06-08T20:05:04.319Z,38.23
2018-06-08T20:07:33.302Z,37.73
2018-06-08T20:10:02.653Z,36.23
2018-06-08T20:12:32.167Z,37.70
2018-06-08T20:15:01.317Z,36.37
2018-06-08T20:17:30.640Z,37.47
2018-06-08T20:19:59.731Z,38.17
2018-06-08T20:22:28.995Z,37.70
2018-06-08T20:24:58.217Z,38.27
2018-06-08T20:27:27.629Z,36.73
2018-06-08T20:29:56.824Z,37.47
2018-06-08T20:32:25.887Z,39.53
2018-06-08T20:34:55.064Z,40.90
2018-06-08T20:37:24.392Z,39.67
2018-06-08T20:39:53.723Z,38.50
2018-06-08T20:42:22.881Z,37.63
2018-06-08T20:44:52.103Z,37.50
2018-06-08T20:47:21.582Z,37.80
2018-06-08T20:49:50.709Z,36.97
2018-06-08T20:52:19.911Z,37.40
2018-06-08T20:54:49.219Z,37.47
2018-06-08T20:57:23.754Z,36.93
2018-06-08T20:59:53.077Z,37.80
2018-06-08T21:02:22.413Z,37.47
2018-06-08T21:04:51.715Z,38.07
2018-06-08T21:07:21.590Z,35.47
2018-06-08T21:09:50.748Z,37.73
2018-06-08T21:12:19.903Z,35.57
2018-06-08T21:14:49.240Z,38.70
2018-06-08T21:17:18.337Z,36.67
2018-06-08T21:19:48.077Z,36.33
2018-06-08T21:22:17.248Z,37.23
2018-06-08T21:24:46.459Z,39.60
2018-06-08T21:27:15.652Z,38.03
2018-06-08T21:29:44.957Z,40.47
2018-06-08T21:32:14.024Z,38.97
2018-06-08T21:34:43.875Z,38.67
2018-06-08T21:37:13.172Z,38.47
2018-06-08T21:39:42.326Z,38.17
2018-06-08T21:42:11.987Z,36.80
2018-06-08T21:44:41.469Z,37.07
2018-06-08T21:47:10.616Z,36.10
2018-06-08T21:49:39.736Z,37.50
2018-06-08T21:52:08.919Z,37.00
2018-06-08T21:54:38.108Z,37.57
2018-06-08T21:57:07.196Z,36.93
2018-06-08T21:59:36.343Z,38.40
2018-06-08T22:02:05.543Z,36.80
2018-06-08T22:04:34.900Z,36.37
2018-06-08T22:07:04.156Z,38.87
2018-06-08T22:09:33.592Z,38.67
2018-06-08T22:12:02.662Z,40.93
2018-06-08T22:14:32.044Z,38.33
2018-06-08T22:17:01.091Z,38.00
2018-06-08T22:19:32.973Z,40.87
2018-06-08T22:22:02.372Z,39.40
2018-06-08T22:24:31.700Z,39.50
2018-06-08T22:27:00.921Z,39.33
2018-06-08T22:29:30.134Z,46.02
2018-06-08T22:31:58.987Z,40.43
2018-06-08T22:34:28.256Z,39.63
2018-06-08T22:36:57.391Z,39.67
2018-06-08T22:39:26.693Z,41.03
2018-06-08T22:41:55.866Z,41.90
2018-06-08T22:44:25.325Z,38.73
2018-06-08T22:46:54.662Z,41.03
2018-06-08T22:49:23.758Z,43.13
2018-06-08T22:51:52.980Z,41.83
2018-06-08T22:54:22.223Z,43.03
2018-06-08T22:56:51.425Z,42.50
2018-06-08T22:59:20.591Z,42.17
2018-06-08T23:01:49.785Z,42.30
2018-06-08T23:04:18.980Z,42.63
2018-06-08T23:06:48.297Z,40.87
2018-06-08T23:09:17.527Z,41.47
2018-06-08T23:11:46.653Z,43.37
2018-06-08T23:14:15.860Z,43.97
2018-06-08T23:16:45.268Z,43.90
2018-06-08T23:19:14.360Z,43.67
2018-06-08T23:21:43.865Z,42.53
2018-06-08T23:24:13.041Z,42.23
2018-06-08T23:26:42.265Z,43.10
2018-06-08T23:29:11.608Z,40.27
2018-06-08T23:31:40.829Z,42.50
2018-06-08T23:34:10.122Z,40.87
2018-06-08T23:36:39.441Z,41.13
2018-06-08T23:39:09.093Z,39.07
2018-06-08T23:41:38.494Z,41.53
2018-06-08T23:44:08.043Z,40.90
2018-06-08T23:46:37.374Z,40.60
2018-06-08T23:49:06.451Z,40.53
2018-06-08T23:51:35.828Z,40.37
2018-06-08T23:54:05.020Z,41.83
2018-06-08T23:56:34.076Z,40.40
2018-06-08T23:59:03.148Z,40.37
